Time;durP1;ratioP1;P1;durP2;ratioP2;P2;SDS_P1;SDS_P2;PMS_P1;PMS_P2;Temp;Humidity;BMP_temperature;BMP_pressure;BME280_temperature;BME280_humidity;BME280_pressure;Samples;Min_cycle;Max_cycle;Signal;HPM_P1;HPM_P2
2023/03/11 00:00:43;;;;;;;17.20;10.95;;;;;;;-4.01;67.34;146341.06;5016361;28;20322;-66
2023/03/11 00:03:12;;;;;;;15.43;10.95;;;;;;;-4.00;68.11;146343.59;5005982;28;20034;-66
2023/03/11 00:05:40;;;;;;;16.05;11.32;;;;;;;-4.01;67.71;146341.06;5013273;28;20045;-66
2023/03/11 00:08:08;;;;;;;16.73;11.60;;;;;;;-4.01;66.62;146341.06;5017104;28;20080;-66
2023/03/11 00:10:37;;;;;;;15.80;10.95;;;;;;;-3.81;66.62;146389.22;5024713;28;20029;-66
2023/03/11 00:13:05;;;;;;;15.77;11.57;;;;;;;-3.84;66.75;146381.63;5013243;28;20041;-66
2023/03/11 00:15:31;;;;;;;14.32;10.73;;;;;;;-3.98;66.94;146347.41;5012820;28;20096;-65
2023/03/11 00:17:58;;;;;;;18.05;11.75;;;;;;;-3.87;66.24;146374.03;5021604;28;20034;-66
2023/03/11 00:20:25;;;;;;;15.90;11.52;;;;;;;-3.93;66.80;146358.78;5018197;28;20022;-67
2023/03/11 00:22:51;;;;;;;20.38;12.10;;;;;;;-4.19;65.84;146295.47;5025444;28;20038;-66
2023/03/11 00:25:18;;;;;;;18.63;11.35;;;;;;;-4.21;66.80;146290.41;5015206;28;20048;-66
2023/03/11 00:27:44;;;;;;;20.63;13.10;;;;;;;-4.26;66.95;146277.72;5023241;28;20071;-66
2023/03/11 00:30:12;;;;;;;17.33;12.18;;;;;;;-4.21;66.10;146291.66;5019870;28;20293;-66
2023/03/11 00:32:37;;;;;;;18.80;12.60;;;;;;;-4.39;65.75;146246.06;5026503;28;20050;-66
2023/03/11 00:35:03;;;;;;;18.27;12.32;;;;;;;-4.27;66.02;146275.22;5022185;28;20048;-66
2023/03/11 00:37:29;;;;;;;19.05;11.43;;;;;;;-4.45;66.87;146232.13;5024586;28;20021;-66
2023/03/11 00:39:55;;;;;;;15.93;11.40;;;;;;;-4.59;66.34;146196.69;5022342;28;20032;-67
2023/03/11 00:42:20;;;;;;;20.13;11.80;;;;;;;-4.51;66.58;146216.94;5029757;28;20079;-66
2023/03/11 00:44:46;;;;;;;16.63;11.18;;;;;;;-4.40;65.59;146244.81;5028006;28;20374;-66
2023/03/11 00:47:12;;;;;;;16.35;11.05;;;;;;;-4.41;66.24;146241.03;5006800;28;20026;-66
2023/03/11 00:49:37;;;;;;;17.58;11.55;;;;;;;-4.42;67.20;146239.72;5012685;28;20033;-66
2023/03/11 00:52:04;;;;;;;18.75;11.60;;;;;;;-4.36;66.99;146254.94;5021487;28;20022;-66
2023/03/11 00:54:29;;;;;;;18.05;11.82;;;;;;;-4.38;67.07;146249.84;5031154;28;20048;-65
2023/03/11 00:56:55;;;;;;;17.38;11.70;;;;;;;-4.21;67.03;146290.41;5026222;28;20273;-67
2023/03/11 00:59:21;;;;;;;18.67;11.20;;;;;;;-4.28;66.08;146273.94;5023877;28;20722;-66
2023/03/11 01:01:47;;;;;;;17.30;10.48;;;;;;;-4.04;66.44;146333.47;5013178;28;20022;-66
2023/03/11 01:04:12;;;;;;;14.48;10.10;;;;;;;-4.03;66.42;146336.00;5017237;28;20103;-67
2023/03/11 01:06:38;;;;;;;17.10;10.82;;;;;;;-4.03;66.73;146336.00;5019857;28;20478;-66
2023/03/11 01:09:04;;;;;;;15.27;10.50;;;;;;;-4.00;66.91;146343.59;5024248;28;20038;-66
2023/03/11 01:11:30;;;;;;;15.93;10.27;;;;;;;-4.13;66.20;146309.38;5007795;28;20067;-65
2023/03/11 01:13:56;;;;;;;13.65;10.15;;;;;;;-4.14;66.61;146306.88;5012082;28;20068;-67
2023/03/11 01:16:22;;;;;;;15.93;9.48;;;;;;;-4.11;66.69;146314.47;5020480;28;20040;-66
2023/03/11 01:18:48;;;;;;;17.98;9.90;;;;;;;-4.27;67.29;146275.22;5014897;28;20030;-65
2023/03/11 01:21:13;;;;;;;13.57;9.27;;;;;;;-4.35;66.78;146257.50;5016990;28;20069;-65
2023/03/11 01:23:40;;;;;;;13.07;9.75;;;;;;;-4.58;67.70;146200.47;5023648;28;20022;-67
2023/03/11 01:26:06;;;;;;;12.43;9.07;;;;;;;-4.27;67.13;146276.47;5011399;28;20030;-65
2023/03/11 01:28:31;;;;;;;12.55;9.05;;;;;;;-4.39;67.25;146247.34;5008852;28;20034;-66
2023/03/11 01:30:57;;;;;;;13.93;9.13;;;;;;;-4.44;67.84;146233.44;5028034;28;20242;-66
2023/03/11 01:33:23;;;;;;;13.65;10.23;;;;;;;-4.37;67.28;146252.41;5026324;28;20068;-65
2023/03/11 01:35:49;;;;;;;14.18;9.63;;;;;;;-4.41;68.70;146242.28;5023370;28;20069;-65
2023/03/11 01:38:16;;;;;;;14.80;10.02;;;;;;;-4.59;68.30;146196.69;5022158;28;20141;-67
2023/03/11 01:40:44;;;;;;;12.90;9.63;;;;;;;-4.71;69.06;146167.59;5017792;28;20032;-66
2023/03/11 01:43:43;;;;;;;13.45;10.20;;;;;;;-4.47;69.20;146227.09;5011483;28;20026;-66
2023/03/11 01:46:27;;;;;;;12.73;9.63;;;;;;;-4.35;67.64;146256.19;5019854;28;20030;-67
2023/03/11 01:49:01;;;;;;;13.75;9.23;;;;;;;-4.33;67.94;146261.28;5013478;28;20034;-67
2023/03/11 01:51:44;;;;;;;13.68;9.10;;;;;;;-4.56;69.27;146204.28;5015554;28;20446;-67
2023/03/11 01:54:30;;;;;;;11.85;8.75;;;;;;;-4.79;69.23;146148.56;5019507;28;20110;-67
2023/03/11 01:56:57;;;;;;;15.93;9.85;;;;;;;-4.86;68.67;146130.84;5015911;28;20346;-66
2023/03/11 01:59:27;;;;;;;17.35;9.10;;;;;;;-4.64;69.79;146184.06;5006161;28;20029;-65
2023/03/11 02:02:09;;;;;;;12.05;9.63;;;;;;;-4.80;69.83;146146.06;5029501;28;20084;-66
2023/03/11 02:04:36;;;;;;;15.10;10.32;;;;;;;-4.81;70.80;146143.53;5013158;28;20554;-67
2023/03/11 02:07:03;;;;;;;12.00;9.07;;;;;;;-4.83;69.37;146138.47;5004709;28;20117;-66
2023/03/11 02:09:29;;;;;;;11.38;8.10;;;;;;;-4.89;70.26;146124.56;5012960;28;20037;-66
2023/03/11 02:11:56;;;;;;;11.80;9.55;;;;;;;-4.80;70.04;146146.06;5020312;28;20359;-67
2023/03/11 02:14:23;;;;;;;13.50;9.40;;;;;;;-4.91;70.71;146118.22;5022855;28;20049;-66
2023/03/11 02:16:49;;;;;;;14.05;9.38;;;;;;;-4.76;71.10;146156.19;5015531;28;20026;-66
2023/03/11 02:19:40;;;;;;;13.75;9.27;;;;;;;-4.92;69.53;146116.91;5010431;28;20041;-66
2023/03/11 02:22:09;;;;;;;14.52;8.85;;;;;;;-4.81;70.13;146143.53;5013792;28;20068;-66
2023/03/11 02:25:08;;;;;;;12.30;9.00;;;;;;;-5.06;70.68;146082.78;5015919;28;20046;-65
2023/03/11 02:27:37;;;;;;;14.43;9.25;;;;;;;-5.01;70.31;146092.91;5012626;28;20041;-65
2023/03/11 02:30:03;;;;;;;14.63;9.10;;;;;;;-4.96;71.85;146105.53;5004280;28;20024;-65
2023/03/11 02:32:30;;;;;;;13.57;8.82;;;;;;;-5.13;70.60;146063.78;5031095;28;20068;-65
2023/03/11 02:34:55;;;;;;;14.60;9.32;;;;;;;-4.81;71.27;146143.53;5022231;28;20032;-66
2023/03/11 02:37:21;;;;;;;13.90;8.23;;;;;;;-4.99;71.20;146097.94;5022351;28;20029;-66
2023/03/11 02:39:49;;;;;;;11.45;8.38;;;;;;;-4.81;71.38;146143.53;5015197;28;20118;-67
2023/03/11 02:42:44;;;;;;;10.52;8.20;;;;;;;-4.83;72.45;146138.47;5018375;28;20219;-67
2023/03/11 02:45:13;;;;;;;11.77;8.75;;;;;;;-4.85;71.44;146134.63;5011297;28;20108;-66
2023/03/11 02:47:39;;;;;;;11.63;8.43;;;;;;;-4.71;71.56;146168.81;5018477;28;20089;-65
2023/03/11 02:50:08;;;;;;;13.20;8.90;;;;;;;-4.76;70.98;146154.91;5006458;28;20025;-67
2023/03/11 02:52:35;;;;;;;12.68;9.15;;;;;;;-4.72;70.83;146165.03;4997062;28;20180;-67
2023/03/11 02:55:01;;;;;;;12.20;9.05;;;;;;;-4.78;71.91;146151.09;5012097;28;20134;-67
2023/03/11 02:57:27;;;;;;;13.50;9.68;;;;;;;-4.79;70.69;146148.56;5018473;28;20064;-67
2023/03/11 02:59:52;;;;;;;14.70;9.90;;;;;;;-4.94;71.80;146110.63;5021498;28;20089;-65
2023/03/11 03:02:18;;;;;;;13.68;9.23;;;;;;;-4.77;71.54;146153.66;5006644;28;20033;-66
2023/03/11 03:04:44;;;;;;;12.05;9.52;;;;;;;-4.78;71.66;146151.09;5012264;28;20022;-67
2023/03/11 03:07:09;;;;;;;13.15;8.07;;;;;;;-4.72;71.81;146165.03;5021886;28;20033;-67
2023/03/11 03:09:35;;;;;;;11.38;8.45;;;;;;;-4.77;72.19;146152.41;5015823;28;20030;-67
2023/03/11 03:12:03;;;;;;;12.65;8.15;;;;;;;-4.82;71.37;146140.97;5019530;28;20026;-67
2023/03/11 03:14:29;;;;;;;9.23;7.55;;;;;;;-4.89;72.08;146123.25;5022097;28;20018;-65
2023/03/11 03:16:54;;;;;;;11.98;7.75;;;;;;;-4.79;71.41;146148.56;5016644;28;20029;-66
2023/03/11 03:19:20;;;;;;;9.98;6.53;;;;;;;-4.98;70.82;146101.75;5025329;28;20087;-67
2023/03/11 03:21:45;;;;;;;8.32;5.85;;;;;;;-4.87;70.91;146128.34;5018505;28;20026;-66
2023/03/11 03:24:11;;;;;;;9.80;6.72;;;;;;;-4.82;70.53;146140.97;5023491;28;20046;-66
2023/03/11 03:26:37;;;;;;;9.20;6.68;;;;;;;-5.11;72.53;146070.09;5020025;28;20018;-66
2023/03/11 03:29:03;;;;;;;9.35;6.55;;;;;;;-4.99;72.59;146097.94;5032385;28;20058;-67
2023/03/11 03:31:30;;;;;;;8.40;7.03;;;;;;;-4.88;71.55;146127.06;5033081;28;20033;-66
2023/03/11 03:33:56;;;;;;;11.18;7.07;;;;;;;-4.79;72.31;146148.56;5026777;28;20088;-67
2023/03/11 03:36:22;;;;;;;16.90;7.60;;;;;;;-4.78;71.72;146149.84;5022200;28;20315;-67
2023/03/11 03:38:52;;;;;;;7.43;6.20;;;;;;;-4.72;71.56;146165.03;5012323;28;20052;-66
2023/03/11 03:41:18;;;;;;;11.70;7.65;;;;;;;-4.81;73.03;146142.28;5014648;28;20040;-67
2023/03/11 03:43:43;;;;;;;8.77;6.45;;;;;;;-5.13;72.91;146065.06;5023695;28;20203;-66
2023/03/11 03:46:09;;;;;;;7.30;4.75;;;;;;;-5.49;75.03;145976.47;5015192;28;20206;-66
2023/03/11 03:48:35;;;;;;;10.23;7.10;;;;;;;-5.38;77.11;146003.03;5027156;28;20034;-66
2023/03/11 03:51:07;;;;;;;10.95;7.35;;;;;;;-5.40;76.43;145997.97;5023246;28;20110;-67
2023/03/11 03:53:34;;;;;;;9.82;7.97;;;;;;;-5.49;77.64;145976.47;5017080;28;20037;-67
2023/03/11 03:56:04;;;;;;;12.07;8.52;;;;;;;-5.26;76.96;146033.44;5022679;28;20025;-66
2023/03/11 03:58:30;;;;;;;11.63;8.85;;;;;;;-5.40;78.05;145997.97;5024368;28;20037;-66
2023/03/11 04:00:56;;;;;;;11.73;8.90;;;;;;;-5.12;79.40;146067.56;5023167;28;20022;-66
2023/03/11 04:03:22;;;;;;;13.45;10.18;;;;;;;-5.30;80.00;146023.31;5020867;28;20214;-66
2023/03/11 04:05:48;;;;;;;12.07;9.32;;;;;;;-5.31;79.09;146019.50;5017238;28;20048;-66
2023/03/11 04:08:14;;;;;;;10.85;9.05;;;;;;;-5.21;79.23;146044.81;5022028;28;20038;-67
2023/03/11 04:10:39;;;;;;;12.45;8.55;;;;;;;-5.48;79.57;145977.75;5019616;28;20049;-67
2023/03/11 04:13:05;;;;;;;12.20;8.95;;;;;;;-5.24;81.06;146038.47;5027259;28;20030;-66
2023/03/11 04:15:30;;;;;;;11.05;8.20;;;;;;;-5.33;80.85;146014.44;5019677;28;20094;-66
2023/03/11 04:17:56;;;;;;;11.80;8.77;;;;;;;-5.40;79.92;145999.25;5023835;28;20026;-68
2023/03/11 04:20:21;;;;;;;12.27;8.80;;;;;;;-5.34;80.19;146013.19;5021611;28;20080;-66
2023/03/11 04:22:47;;;;;;;11.23;9.10;;;;;;;-5.30;80.17;146022.00;5013013;28;20021;-65
2023/03/11 04:25:12;;;;;;;13.32;9.07;;;;;;;-5.48;80.98;145977.75;5018832;28;20042;-67
2023/03/11 04:27:41;;;;;;;12.02;9.23;;;;;;;-5.23;80.18;146041.00;5018013;28;20073;-67
2023/03/11 04:30:08;;;;;;;12.38;9.02;;;;;;;-5.13;80.69;146065.06;5020809;28;20032;-67
2023/03/11 04:32:34;;;;;;;11.88;9.90;;;;;;;-5.10;79.97;146072.66;5025893;28;20025;-65
2023/03/11 04:34:59;;;;;;;12.95;9.93;;;;;;;-5.05;80.55;146085.28;5023584;28;20041;-67
2023/03/11 04:37:28;;;;;;;13.27;9.73;;;;;;;-5.22;81.12;146042.25;5024672;28;20207;-66
2023/03/11 04:39:54;;;;;;;14.93;9.88;;;;;;;-5.37;81.07;146006.84;5015761;28;20056;-66
2023/03/11 04:42:20;;;;;;;14.00;10.35;;;;;;;-5.26;80.86;146033.44;5016830;28;20035;-66
2023/03/11 04:44:45;;;;;;;14.23;10.70;;;;;;;-5.20;80.97;146047.34;5023341;28;20136;-66
2023/03/11 04:47:11;;;;;;;14.65;10.50;;;;;;;-4.98;80.79;146101.75;5011661;28;20041;-67
2023/03/11 04:49:36;;;;;;;16.95;11.65;;;;;;;-4.81;80.58;146143.53;5019589;28;20033;-66
2023/03/11 04:52:02;;;;;;;17.25;13.15;;;;;;;-5.04;80.17;146087.81;5014936;28;20042;-67
2023/03/11 04:54:28;;;;;;;18.95;14.18;;;;;;;-5.07;79.50;146080.22;5020473;28;20034;-67
2023/03/11 04:56:53;;;;;;;16.88;12.63;;;;;;;-5.04;78.75;146087.81;5055864;28;20029;-68
2023/03/11 04:59:19;;;;;;;18.40;12.88;;;;;;;-5.21;80.87;146046.06;5023940;28;20226;-66
2023/03/11 05:01:44;;;;;;;19.83;13.93;;;;;;;-5.20;81.09;146048.59;5038243;28;20037;-68
2023/03/11 05:04:11;;;;;;;18.65;13.10;;;;;;;-4.98;79.61;146101.75;5014294;28;20078;-65
2023/03/11 05:06:37;;;;;;;18.98;12.90;;;;;;;-4.97;80.49;146103.00;5017245;28;20045;-66
2023/03/11 05:09:03;;;;;;;17.75;12.50;;;;;;;-5.07;80.79;146080.22;5013534;28;20307;-65
2023/03/11 05:11:29;;;;;;;18.65;11.90;;;;;;;-5.20;81.04;146047.34;5018024;28;20030;-67
2023/03/11 05:13:55;;;;;;;16.08;12.35;;;;;;;-5.08;79.94;146077.69;5008099;28;20026;-65
2023/03/11 05:16:20;;;;;;;14.30;10.75;;;;;;;-5.18;81.45;146051.13;5016523;28;20176;-66
2023/03/11 05:18:46;;;;;;;16.88;10.70;;;;;;;-5.61;82.28;145947.38;5017080;28;20046;-66
2023/03/11 05:21:12;;;;;;;15.63;11.23;;;;;;;-5.24;80.76;146038.47;5012740;28;20052;-65
2023/03/11 05:23:37;;;;;;;16.40;11.57;;;;;;;-5.41;80.51;145996.72;5017162;28;20030;-65
2023/03/11 05:26:03;;;;;;;16.13;11.45;;;;;;;-5.09;81.84;146075.19;5022728;28;20120;-66
2023/03/11 05:28:29;;;;;;;16.75;11.68;;;;;;;-5.17;81.01;146054.94;5014662;28;20022;-66
2023/03/11 05:30:54;;;;;;;16.88;12.18;;;;;;;-5.24;79.39;146037.22;5023876;28;20025;-65
2023/03/11 05:33:20;;;;;;;16.77;12.57;;;;;;;-5.18;79.97;146052.38;5031175;28;20025;-66
2023/03/11 05:35:45;;;;;;;16.55;11.60;;;;;;;-5.20;80.74;146048.59;5023379;28;20045;-67
2023/03/11 05:38:11;;;;;;;21.25;12.10;;;;;;;-5.04;80.05;146086.56;5022332;28;20338;-66
2023/03/11 05:40:37;;;;;;;19.48;11.85;;;;;;;-5.38;81.54;146004.28;5015096;28;20025;-67
2023/03/11 05:43:02;;;;;;;15.75;11.73;;;;;;;-4.89;81.33;146124.56;5021749;28;20234;-67
2023/03/11 05:45:28;;;;;;;14.25;10.73;;;;;;;-5.01;81.54;146092.91;5027132;28;20027;-66
2023/03/11 05:47:54;;;;;;;14.52;10.73;;;;;;;-5.10;81.77;146071.34;5027700;28;20093;-66
2023/03/11 05:50:19;;;;;;;14.60;10.63;;;;;;;-4.89;81.11;146124.56;5021446;28;20048;-68
2023/03/11 05:52:45;;;;;;;14.60;10.38;;;;;;;-4.94;80.18;146110.63;5014295;28;20089;-66
2023/03/11 05:55:11;;;;;;;16.73;11.93;;;;;;;-4.79;80.30;146147.31;5020254;28;20050;-66
2023/03/11 05:57:38;;;;;;;15.35;10.65;;;;;;;-5.19;81.28;146049.84;5022855;28;20197;-66
2023/03/11 06:00:10;;;;;;;13.07;10.02;;;;;;;-4.89;80.51;146123.25;5022244;28;20093;-65
2023/03/11 06:02:36;;;;;;;14.13;10.63;;;;;;;-4.76;81.28;146156.19;5006945;28;20032;-66
2023/03/11 06:05:02;;;;;;;12.35;9.80;;;;;;;-4.72;80.51;146165.03;5012862;28;20025;-67
2023/03/11 06:07:28;;;;;;;14.30;10.98;;;;;;;-4.53;79.24;146211.91;5021574;28;20049;-67
2023/03/11 06:09:54;;;;;;;15.50;10.60;;;;;;;-4.49;79.63;146222.00;5015275;28;20073;-66
2023/03/11 06:12:19;;;;;;;15.48;10.60;;;;;;;-4.60;79.81;146194.13;5019071;28;20076;-67
2023/03/11 06:14:45;;;;;;;14.68;9.70;;;;;;;-4.36;79.03;146254.94;5022692;28;20081;-66
2023/03/11 06:17:10;;;;;;;11.77;9.27;;;;;;;-4.59;78.71;146196.69;5012657;28;20596;-66
2023/03/11 06:19:36;;;;;;;12.85;9.68;;;;;;;-4.49;80.27;146220.75;5019886;28;20030;-70
2023/03/11 06:22:02;;;;;;;13.73;9.70;;;;;;;-4.60;78.93;146194.13;5021995;28;20101;-67
2023/03/11 06:24:27;;;;;;;14.40;10.30;;;;;;;-4.68;80.06;146175.16;5020283;28;20153;-66
2023/03/11 06:26:53;;;;;;;12.93;9.32;;;;;;;-4.89;79.95;146124.56;5022395;28;20021;-66
2023/03/11 06:29:20;;;;;;;12.95;10.00;;;;;;;-4.48;79.23;146223.28;5011994;28;20084;-66
2023/03/11 06:31:46;;;;;;;11.90;7.68;;;;;;;-4.85;80.17;146133.38;5008259;28;20066;-66
2023/03/11 06:34:11;;;;;;;12.93;10.00;;;;;;;-4.70;81.15;146171.38;5017872;28;20036;-66
2023/03/11 06:36:37;;;;;;;14.55;9.43;;;;;;;-4.73;79.50;146162.50;5019845;28;20041;-67
2023/03/11 06:39:03;;;;;;;11.38;9.43;;;;;;;-4.72;79.67;146166.34;5022385;28;20026;-67
2023/03/11 06:41:31;;;;;;;12.80;9.80;;;;;;;-4.71;80.69;146168.81;5002866;28;20121;-68
2023/03/11 06:43:58;;;;;;;12.43;9.77;;;;;;;-4.57;79.81;146203.03;5005176;28;20037;-68
2023/03/11 06:46:24;;;;;;;11.10;9.50;;;;;;;-4.60;80.48;146194.13;5029446;28;20392;-66
2023/03/11 06:48:51;;;;;;;15.07;10.73;;;;;;;-4.21;80.03;146290.41;5008281;28;20105;-68
2023/03/11 06:51:17;;;;;;;14.38;10.57;;;;;;;-4.26;79.96;146277.72;5016720;28;20026;-67
2023/03/11 06:53:47;;;;;;;13.77;10.45;;;;;;;-4.74;80.18;146161.25;5001177;28;20038;-67
2023/03/11 06:56:13;;;;;;;16.13;10.98;;;;;;;-4.77;81.13;146152.41;5011245;28;20043;-67
2023/03/11 06:58:40;;;;;;;13.50;10.30;;;;;;;-4.82;81.11;146140.97;5021841;28;20053;-66
2023/03/11 07:01:09;;;;;;;13.68;10.43;;;;;;;-4.49;81.92;146222.00;5018200;28;20022;-66
2023/03/11 07:03:35;;;;;;;13.77;10.10;;;;;;;-4.36;80.64;146253.66;5017741;28;20027;-66
2023/03/11 07:06:00;;;;;;;14.23;10.48;;;;;;;-4.56;80.48;146204.28;5014223;28;20092;-66
2023/03/11 07:08:26;;;;;;;11.43;9.82;;;;;;;-4.53;81.39;146211.91;5002754;28;20049;-66
2023/03/11 07:11:18;;;;;;;12.95;9.27;;;;;;;-4.58;82.30;146200.47;5006261;28;20025;-68
2023/03/11 07:13:46;;;;;;;13.15;9.00;;;;;;;-4.32;81.52;146262.53;5010444;28;20034;-67
2023/03/11 07:16:14;;;;;;;12.55;9.38;;;;;;;-4.53;80.40;146211.91;5010041;28;20048;-66
2023/03/11 07:18:41;;;;;;;15.00;10.25;;;;;;;-4.19;80.93;146296.75;5013308;28;20132;-67
2023/03/11 07:21:07;;;;;;;11.48;9.07;;;;;;;-4.40;80.39;146244.81;5018060;28;20239;-66
2023/03/11 07:23:34;;;;;;;10.98;8.50;;;;;;;-4.57;81.04;146201.78;5018291;28;20349;-66
2023/03/11 07:25:59;;;;;;;13.55;9.35;;;;;;;-4.36;82.02;146253.66;5017360;28;20502;-66
2023/03/11 07:28:27;;;;;;;12.85;9.57;;;;;;;-4.62;81.09;146190.34;5018103;28;20025;-67
2023/03/11 07:30:53;;;;;;;10.35;8.02;;;;;;;-4.62;81.30;146189.09;5023410;28;20029;-67
2023/03/11 07:33:21;;;;;;;12.52;8.52;;;;;;;-4.50;81.87;146219.50;5021966;28;20044;-66
2023/03/11 07:35:48;;;;;;;14.40;8.68;;;;;;;-4.70;82.23;146171.38;5022563;28;20034;-66
2023/03/11 07:38:15;;;;;;;12.32;9.20;;;;;;;-4.74;81.93;146160.00;5016895;28;20040;-67
2023/03/11 07:40:41;;;;;;;13.35;8.88;;;;;;;-4.49;82.91;146222.00;5009225;28;20030;-67
2023/03/11 07:43:07;;;;;;;11.65;9.23;;;;;;;-4.70;82.10;146170.13;5026948;28;20041;-67
2023/03/11 07:45:33;;;;;;;10.73;8.60;;;;;;;-4.58;81.69;146200.47;5018963;28;20026;-67
2023/03/11 07:47:58;;;;;;;10.75;8.50;;;;;;;-4.35;81.44;146257.50;5010666;28;20235;-68
2023/03/11 07:50:24;;;;;;;12.98;8.38;;;;;;;-3.98;81.33;146347.41;5001319;28;20033;-67
2023/03/11 07:52:49;;;;;;;10.30;8.80;;;;;;;-4.53;80.86;146213.16;5032961;28;20198;-68
2023/03/11 07:55:15;;;;;;;11.25;8.23;;;;;;;-4.39;79.30;146247.34;5015871;28;20088;-66
2023/03/11 07:57:41;;;;;;;9.20;7.55;;;;;;;-4.51;80.18;146216.94;5022324;28;20096;-66
2023/03/11 08:00:08;;;;;;;12.32;8.38;;;;;;;-4.55;80.11;146208.06;5022349;28;20025;-67
2023/03/11 08:02:34;;;;;;;9.93;7.85;;;;;;;-4.37;79.71;146252.41;5018517;28;20101;-67
2023/03/11 08:05:00;;;;;;;12.75;8.45;;;;;;;-4.41;80.79;146241.03;5037772;28;20028;-68
2023/03/11 08:07:25;;;;;;;9.68;7.70;;;;;;;-4.45;80.42;146232.13;5016094;28;20026;-68
2023/03/11 08:09:51;;;;;;;11.77;7.78;;;;;;;-4.54;81.90;146209.38;5029535;28;20310;-68
2023/03/11 08:12:16;;;;;;;12.90;8.60;;;;;;;-4.40;81.64;146244.81;5032773;28;20321;-67
2023/03/11 08:14:42;;;;;;;12.32;8.50;;;;;;;-4.31;81.32;146266.34;5005707;28;20045;-67
2023/03/11 08:17:08;;;;;;;10.90;7.03;;;;;;;-4.52;82.01;146214.41;5037725;28;20026;-67
2023/03/11 08:19:34;;;;;;;10.38;8.00;;;;;;;-4.40;82.25;146244.81;5013550;28;20022;-67
2023/03/11 08:22:03;;;;;;;8.85;6.70;;;;;;;-4.40;80.96;146244.81;5006322;28;20081;-67
2023/03/11 08:24:29;;;;;;;11.07;7.70;;;;;;;-4.21;81.43;146290.41;5014715;28;20022;-66
2023/03/11 08:26:55;;;;;;;10.57;7.40;;;;;;;-4.03;81.22;146334.75;5020896;28;20080;-68
2023/03/11 08:29:22;;;;;;;8.50;7.40;;;;;;;-4.27;81.23;146276.47;5024700;28;20036;-67
2023/03/11 08:31:48;;;;;;;28.55;7.07;;;;;;;-4.63;83.57;146187.84;5029567;28;20029;-67
2023/03/11 08:34:14;;;;;;;13.13;7.78;;;;;;;-4.24;82.56;146282.81;5025246;28;20218;-67
2023/03/11 08:36:39;;;;;;;10.25;8.32;;;;;;;-4.43;82.27;146237.22;5021663;28;20030;-67
2023/03/11 08:39:05;;;;;;;13.60;8.43;;;;;;;-4.24;83.20;146282.81;5021619;28;20234;-68
2023/03/11 08:41:31;;;;;;;12.40;8.60;;;;;;;-4.08;82.56;146323.31;5009106;28;20045;-68
2023/03/11 08:43:57;;;;;;;10.48;8.25;;;;;;;-4.22;83.38;146289.16;5010703;28;20028;-67
2023/03/11 08:46:26;;;;;;;11.95;8.45;;;;;;;-4.14;82.91;146308.13;5015262;28;20034;-67
2023/03/11 08:48:52;;;;;;;11.80;9.05;;;;;;;-3.90;82.96;146366.44;5030917;28;20061;-67
2023/03/11 08:51:18;;;;;;;12.40;9.43;;;;;;;-4.05;81.93;146330.91;5027516;28;20091;-67
2023/03/11 08:53:45;;;;;;;14.30;9.07;;;;;;;-3.94;80.71;146356.28;5025058;28;20298;-66
2023/03/11 08:56:10;;;;;;;12.57;10.10;;;;;;;-4.10;81.59;146318.28;5018868;28;20038;-67
2023/03/11 08:58:36;;;;;;;12.07;9.75;;;;;;;-3.96;81.75;146351.19;5024741;28;20045;-68
2023/03/11 09:01:03;;;;;;;16.38;10.45;;;;;;;-3.96;81.38;146351.19;5018708;28;20034;-68
2023/03/11 09:03:36;;;;;;;12.25;9.40;;;;;;;-3.80;80.73;146391.75;5021251;28;20045;-68
2023/03/11 09:06:09;;;;;;;12.18;9.90;;;;;;;-3.71;80.47;146414.53;5013611;28;20035;-68
2023/03/11 09:08:35;;;;;;;12.68;9.05;;;;;;;-4.18;81.49;146298.00;5014899;28;20129;-68
2023/03/11 09:11:01;;;;;;;12.98;10.45;;;;;;;-3.75;82.60;146404.41;5009727;28;20114;-67
2023/03/11 09:13:26;;;;;;;10.40;9.13;;;;;;;-3.62;81.84;146434.81;5014986;28;20033;-67
2023/03/11 09:15:52;;;;;;;11.88;7.55;;;;;;;-3.94;80.56;146356.28;5019174;28;20052;-66
2023/03/11 09:18:18;;;;;;;8.82;6.25;;;;;;;-3.89;80.06;146368.94;5005500;28;20098;-67
2023/03/11 09:20:44;;;;;;;9.50;6.32;;;;;;;-3.93;79.33;146358.78;5024445;28;20029;-67
2023/03/11 09:23:13;;;;;;;8.90;7.22;;;;;;;-3.98;80.34;146347.41;5020986;28;20287;-69
2023/03/11 09:25:38;;;;;;;7.68;6.55;;;;;;;-3.80;80.49;146391.75;5013044;28;20032;-68
2023/03/11 09:28:04;;;;;;;11.02;7.10;;;;;;;-3.97;80.46;146349.94;5015945;28;20038;-67
2023/03/11 09:30:30;;;;;;;9.05;6.57;;;;;;;-3.88;80.54;146371.47;5016536;28;20239;-70
2023/03/11 09:32:56;;;;;;;8.52;6.78;;;;;;;-3.91;81.65;146363.88;5029775;28;20378;-68
2023/03/11 09:35:22;;;;;;;7.38;5.68;;;;;;;-4.21;84.25;146290.41;5023959;28;20337;-67
2023/03/11 09:37:48;;;;;;;7.68;4.43;;;;;;;-4.32;84.43;146262.53;5016755;28;20026;-68
2023/03/11 09:40:22;;;;;;;10.20;7.13;;;;;;;-4.19;86.50;146296.75;5024080;28;20047;-67
2023/03/11 09:43:12;;;;;;;10.00;7.30;;;;;;;-3.90;86.04;146367.69;5019459;28;20056;-67
2023/03/11 09:45:45;;;;;;;8.40;7.00;;;;;;;-3.77;85.33;146399.34;5022780;28;20014;-68
2023/03/11 09:48:30;;;;;;;7.88;6.18;;;;;;;-3.55;84.49;146453.88;5016521;28;20093;-67
2023/03/11 09:51:07;;;;;;;9.27;6.47;;;;;;;-3.68;84.17;146420.88;5017281;28;20046;-68
2023/03/11 09:53:44;;;;;;;8.90;6.80;;;;;;;-3.69;84.09;146419.63;5021975;28;20105;-67
2023/03/11 09:56:16;;;;;;;8.07;6.40;;;;;;;-3.64;83.57;146432.28;5012566;28;20346;-67
2023/03/11 09:58:51;;;;;;;9.00;6.57;;;;;;;-3.82;84.08;146387.97;5014987;28;20241;-68
2023/03/11 10:01:36;;;;;;;9.30;6.80;;;;;;;-3.68;83.51;146422.19;5015255;28;20279;-69
2023/03/11 10:04:15;;;;;;;11.02;7.90;;;;;;;-3.54;82.86;146456.38;5010053;28;20405;-68
2023/03/11 10:06:43;;;;;;;8.63;6.68;;;;;;;-3.51;82.87;146462.72;5020423;28;20320;-68
2023/03/11 10:09:12;;;;;;;29.35;14.93;;;;;;;-3.74;83.40;146406.94;5017926;28;20045;-67
2023/03/11 10:11:55;;;;;;;8.85;5.53;;;;;;;-3.89;83.94;146370.22;5022437;28;20049;-68
2023/03/11 10:14:42;;;;;;;9.38;6.95;;;;;;;-3.57;84.08;146448.78;5006849;28;20050;-67
2023/03/11 10:17:26;;;;;;;7.90;6.68;;;;;;;-3.66;83.17;146427.22;5018842;28;20170;-69
2023/03/11 10:20:16;;;;;;;8.32;6.15;;;;;;;-3.56;83.05;146450.03;5013510;28;20096;-68
2023/03/11 10:23:09;;;;;;;7.97;6.20;;;;;;;-3.62;81.38;146434.81;5020740;28;20036;-67
2023/03/11 10:26:04;;;;;;;10.27;6.72;;;;;;;-3.59;82.58;146442.44;5012950;28;20041;-68
2023/03/11 10:28:39;;;;;;;8.18;5.20;;;;;;;-3.77;81.68;146399.34;5013402;28;20041;-68
2023/03/11 10:31:23;;;;;;;6.80;6.10;;;;;;;-3.55;82.01;146452.56;5029457;28;20158;-68
2023/03/11 10:33:58;;;;;;;8.07;5.93;;;;;;;-3.67;81.60;146424.69;5024341;28;20040;-67
2023/03/11 10:36:33;;;;;;;8.00;6.35;;;;;;;-3.47;80.83;146472.84;5022351;28;20037;-67
2023/03/11 10:39:00;;;;;;;9.10;6.55;;;;;;;-3.37;80.83;146496.94;5013583;28;20198;-67
2023/03/11 10:41:31;;;;;;;9.27;5.80;;;;;;;-3.31;80.59;146513.44;5020469;28;20026;-68
2023/03/11 10:44:04;;;;;;;10.48;6.85;;;;;;;-3.50;81.35;146466.50;5011945;28;20022;-68
2023/03/11 10:46:30;;;;;;;7.88;6.53;;;;;;;-3.28;80.94;146518.50;5020577;28;20021;-69
2023/03/11 10:48:56;;;;;;;8.45;6.50;;;;;;;-3.25;81.06;146527.38;5018046;28;20053;-67
2023/03/11 10:51:26;;;;;;;9.20;7.35;;;;;;;-3.34;81.32;146504.53;5016841;28;20036;-67
2023/03/11 10:53:57;;;;;;;9.02;6.78;;;;;;;-3.28;80.24;146518.50;5020934;28;20033;-67
2023/03/11 10:56:39;;;;;;;9.20;6.68;;;;;;;-3.39;80.77;146493.16;5009227;28;20034;-68
2023/03/11 10:59:31;;;;;;;10.57;7.03;;;;;;;-3.48;81.17;146471.59;5014080;28;20036;-67
2023/03/11 11:02:24;;;;;;;8.50;5.85;;;;;;;-3.47;80.80;146472.84;5011377;28;20030;-68
2023/03/11 11:05:19;;;;;;;7.93;6.47;;;;;;;-3.53;81.35;146458.91;5002260;28;20097;-67
2023/03/11 11:07:47;;;;;;;8.80;7.05;;;;;;;-3.62;80.84;146436.06;5015398;28;20187;-68
2023/03/11 11:10:25;;;;;;;9.55;6.35;;;;;;;-3.54;80.37;146455.13;5031146;28;20080;-67
2023/03/11 11:12:58;;;;;;;9.10;7.22;;;;;;;-3.25;81.01;146526.09;5006856;28;20123;-67
2023/03/11 11:15:34;;;;;;;10.15;7.15;;;;;;;-3.27;80.32;146521.03;5015382;28;20026;-68
2023/03/11 11:18:03;;;;;;;7.43;5.60;;;;;;;-3.57;80.95;146447.53;5020483;28;20030;-67
2023/03/11 11:20:30;;;;;;;9.43;6.43;;;;;;;-3.25;80.67;146526.09;5010398;28;20076;-68
2023/03/11 11:23:02;;;;;;;7.15;6.35;;;;;;;-3.33;80.46;146508.34;5018524;28;20026;-68